Meath Environmental Platform

Observations for Trim Patrick St

Time AQI Temp °C Hum % Pres Pa CO μg/m³ H₂S μg/m³ NO μg/m³ NO₂ μg/m³ O₃ μg/m³ SO₂ μg/m³ PM1 μg/m³ PM2.5 μg/m³ PM10 μg/m³
Thursday 6 August 2026
04:03 2 13 75 38,460 0.28 0 3.56 11.71 44.79 0 3.71 7.71 8.48
04:02 2 13 75 38,460 0.28 0 3.51 8.94 34.35 0 3.71 6.98 7.68
04:01 2 13 74 38,460 0.27 0 3.42 10.32 34.43 0 3.71 7.73 8.5
04:00 2 13 75 38,460 0.27 0 3.36 8.16 35.52 0 2.86 6.28 6.91
03:59 2 13 75 38,460 0.26 0 3.35 9.75 36.49 0 4.57 9.12 10.03
03:58 2 13.1 75 38,460 0.27 0 3.36 11.03 39.1 0 2 6.27 6.9
03:57 2 13.1 75 38,460 0.28 0 3.35 11.55 41.84 0 2.86 7 7.7
03:56 2 13.1 74 38,460 0.27 0 3.47 10.22 36.59 0 2.86 5.61 6.17
03:55 2 13.1 75 38,460 0.27 0 3.44 8.11 33.08 0 3.71 6.98 7.68
03:54 2 13.1 75 38,460 0.27 0 3.43 10.9 39.75 0 2 5.55 6.1
03:53 2 13.1 75 38,460 0.27 0 3.4 10.65 36.23 0 2.86 5.57 6.13
03:52 2 13.1 74 38,460 0.27 0 3.41 12.09 42.22 0 2.86 6.3 6.93
03:51 2 13.1 74 38,460 0.27 0 3.39 7.27 32.88 0 2 6.3 6.93
03:50 2 13.1 74 38,460 0.28 0 3.4 11.73 41.99 0 2.86 6.3 6.94
03:49 2 13.1 74 38,460 0.27 0 3.49 8.22 34.58 0 3.71 7.74 8.51
03:48 2 13.1 74 38,460 0.27 0 3.56 10.21 37.1 0 2.86 6.32 6.95
03:47 2 13.1 74 38,460 0.27 0 3.58 9.04 32.8 0 2.86 7.03 7.73
03:46 2 13.1 75 38,460 0.28 0 3.48 10.5 35.02 0 2.86 6.99 7.69
03:45 2 13.1 74 38,460 0.28 0 3.58 10.6 36.1 0 4.57 7.72 8.49
03:44 2 13.1 74 38,460 0.28 0 3.56 10.51 42.45 0 3.71 7.75 8.53